F/V Manbrisa — FMGR — position and weather

sailwx.info

Track history (hours):
 
Tides and Currents Weather Stations Pressure Air Temp Water Temp Dewpoint Dewpoint Depression Visibility Wind Speed Wind Dir Waves Ship Positions

F/V Manbrisa

Last reported at 2017-Nov-24 05:30 UTC. Time now 2017-Nov-24 05:42 UTC.
Position N 46°28' W 002°01'.

Length 18 m.

Type: Fishing. MMSI: 228229900.

Date/timePositionNaut miles runAvg speedWind from/ knotsBaromVisibWave heightAir tempDewpointWater temp
2017-Nov-24 05:30N 46°28' W 002°01'4 7.9
2017-Nov-24 05:00N 46°28' W 001°55'4 7.8
2017-Nov-24 04:30N 46°28' W 001°49'2 3.9
2017-Nov-24 04:00N 46°30' W 001°47'0 0.0
2017-Nov-24 03:30N 46°30' W 001°47'0 0.0
2017-Nov-24 03:00N 46°30' W 001°47'0 0.0
2017-Nov-24 02:30N 46°30' W 001°47'0 0.0
2017-Nov-24 02:00N 46°30' W 001°47'0 0.0
2017-Nov-24 01:30N 46°30' W 001°47'0 0.0
2017-Nov-24 01:00N 46°30' W 001°47'0 0.0
2017-Nov-24 00:30N 46°30' W 001°47'0 0.0
2017-Nov-24 00:00N 46°30' W 001°47'0 0.0
2017-Nov-23 23:30N 46°30' W 001°47'0 0.0
2017-Nov-23 23:00N 46°30' W 001°47'0 0.0
2017-Nov-23 22:30N 46°30' W 001°47'0 0.0
2017-Nov-23 22:00N 46°30' W 001°47'0 0.0
2017-Nov-23 21:30N 46°30' W 001°47'0 0.0
2017-Nov-23 21:00N 46°30' W 001°47'0 0.0
2017-Nov-23 20:30N 46°30' W 001°47'0 0.0
2017-Nov-23 20:00N 46°30' W 001°47'0 0.0
2017-Nov-23 19:30N 46°30' W 001°47'0 0.0
2017-Nov-23 19:00N 46°30' W 001°47'0 0.0
2017-Nov-23 18:30N 46°30' W 001°47'0 0.0
2017-Nov-23 18:00N 46°30' W 001°47'0 0.0
2017-Nov-23 17:30N 46°30' W 001°47'0 0.0
2017-Nov-23 17:00N 46°30' W 001°47'0 0.0
2017-Nov-23 16:30N 46°30' W 001°47'0 0.0
2017-Nov-23 16:00N 46°30' W 001°47'0 0.0
2017-Nov-23 15:30N 46°30' W 001°47'0 0.0
2017-Nov-23 15:00N 46°30' W 001°47'1 1.7
2017-Nov-23 14:30N 46°29' W 001°47'4 8.8
2017-Nov-23 14:00N 46°28' W 001°53'5 9.8
2017-Nov-23 13:30N 46°28' W 002°01'5 9.7
2017-Nov-23 13:00N 46°29' W 002°08'3 4.9
2017-Nov-23 12:30N 46°29' W 002°11'0 0.7
2017-Nov-23 12:00N 46°29' W 002°11'0 0.9
2017-Nov-23 11:30N 46°29' W 002°10'4 8.2
2017-Nov-23 11:00N 46°33' W 002°08'2 5.0
2017-Nov-23 10:30N 46°34' W 002°10'3 5.8
2017-Nov-23 09:58N 46°35' W 002°14'3 5.6
2017-Nov-23 09:27N 46°36' W 002°18'2 1.2
2017-Nov-23 08:06N 46°36' W 002°16'1 6.8
2017-Nov-23 08:00N 46°37' W 002°16'4 3.3
2017-Nov-23 06:54N 46°34' W 002°12'3 8.8
2017-Nov-23 06:30N 46°33' W 002°08'4 8.7
2017-Nov-23 06:00N 46°31' W 002°02'4 8.6
2017-Nov-23 05:30N 46°30' W 001°56'4 8.7
2017-Nov-23 05:00N 46°28' W 001°50'2 4.6
2017-Nov-23 04:30N 46°30' W 001°47'0 0.0
2017-Nov-23 04:00N 46°30' W 001°47'0 0.0
2017-Nov-23 03:30N 46°30' W 001°47'0 0.0
2017-Nov-23 03:00N 46°30' W 001°47'0 0.0
2017-Nov-23 02:30N 46°30' W 001°47'0 0.0
2017-Nov-23 02:00N 46°30' W 001°47'0 0.0
2017-Nov-23 01:30N 46°30' W 001°47'0 0.0
2017-Nov-23 01:00N 46°30' W 001°47'0 0.0
2017-Nov-23 00:30N 46°30' W 001°47'0 0.0
2017-Nov-23 00:00N 46°30' W 001°47'0 0.0
2017-Nov-22 23:30N 46°30' W 001°47'0 0.0
2017-Nov-22 23:00N 46°30' W 001°47'0 0.0
2017-Nov-22 22:30N 46°30' W 001°47'0 0.0
2017-Nov-22 22:00N 46°30' W 001°47'0 0.0
2017-Nov-22 21:30N 46°30' W 001°47'0 0.0
2017-Nov-22 21:00N 46°30' W 001°47'0 0.0
2017-Nov-22 20:30N 46°30' W 001°47'0 0.1
2017-Nov-22 20:00N 46°30' W 001°47'1 2.8
2017-Nov-22 19:30N 46°29' W 001°47'  
2017-Nov-20 00:30N 46°30' W 001°47'0 0.0
2017-Nov-20 00:00N 46°30' W 001°47'0 0.0
2017-Nov-19 23:30N 46°30' W 001°47'0 0.0
2017-Nov-19 23:00N 46°30' W 001°47'0 0.0
2017-Nov-19 22:30N 46°30' W 001°47'0 0.0
2017-Nov-19 22:00N 46°30' W 001°47'0 0.0
2017-Nov-19 21:30N 46°30' W 001°47'0 0.0
2017-Nov-19 21:00N 46°30' W 001°47'0 0.0
2017-Nov-19 20:30N 46°30' W 001°47'0 0.0
2017-Nov-19 20:00N 46°30' W 001°47'0 0.0
2017-Nov-19 19:30N 46°30' W 001°47'1 2.9
2017-Nov-19 19:00N 46°28' W 001°48'4 9.0
2017-Nov-19 18:30N 46°29' W 001°54'5 9.3
2017-Nov-19 18:00N 46°31' W 002°00'5 9.4
2017-Nov-19 17:30N 46°33' W 002°07'5 9.5
2017-Nov-19 17:00N 46°34' W 002°13'5 0.8
2017-Nov-19 09:51N 46°36' W 002°20'1 2.3
2017-Nov-19 09:25N 46°36' W 002°19'1 0.7
2017-Nov-19 07:24N 46°37' W 002°17'5 6.0
2017-Nov-19 06:31N 46°34' W 002°10'0 9.7
2017-Nov-19 06:29N 46°34' W 002°10'5 9.7
2017-Nov-19 05:59N 46°32' W 002°03'5 9.7
2017-Nov-19 05:30N 46°31' W 001°57'5 9.7
2017-Nov-19 05:00N 46°29' W 001°51'2 5.0
2017-Nov-19 04:30N 46°30' W 001°47'0 0.2
2017-Nov-19 04:00N 46°30' W 001°47'0 0.0
2017-Nov-19 03:30N 46°30' W 001°47'0 0.0
2017-Nov-19 03:00N 46°30' W 001°47'0 0.0
2017-Nov-19 02:30N 46°30' W 001°47'0 0.0
2017-Nov-19 02:00N 46°30' W 001°47'0 0.0
2017-Nov-19 01:30N 46°30' W 001°47'0 0.0
2017-Nov-19 01:00N 46°30' W 001°47'0 0.0
2017-Nov-19 00:30N 46°30' W 001°47'0 0.0
2017-Nov-19 00:00N 46°30' W 001°47'0 0.0
2017-Nov-18 23:30N 46°30' W 001°47'0 0.0
2017-Nov-18 23:00N 46°30' W 001°47'0 0.0
2017-Nov-18 22:30N 46°30' W 001°47'0 0.0
2017-Nov-18 22:00N 46°30' W 001°47'0 0.0
2017-Nov-18 21:30N 46°30' W 001°47'0 0.0
2017-Nov-18 21:00N 46°30' W 001°47'0 0.0
2017-Nov-18 20:30N 46°30' W 001°47'0 0.0
2017-Nov-18 20:00N 46°30' W 001°47'0 0.1
2017-Nov-18 19:30N 46°30' W 001°47'2 3.1
2017-Nov-18 19:00N 46°28' W 001°48'5 9.4
2017-Nov-18 18:30N 46°29' W 001°54'5 9.6
2017-Nov-18 18:00N 46°31' W 002°01'5 9.7
2017-Nov-18 17:30N 46°32' W 002°08'5 9.8
2017-Nov-18 16:58N 46°33' W 002°15'5 9.9
2017-Nov-18 16:30N 46°34' W 002°22'1 1.8
2017-Nov-18 16:00N 46°34' W 002°23'1 2.5
2017-Nov-18 15:30N 46°33' W 002°25'2 3.3
2017-Nov-18 14:51N 46°36' W 002°24'0 0.8
2017-Nov-18 14:30N 46°35' W 002°24'1 1.3
2017-Nov-18 13:59N 46°35' W 002°25'3 4.7
2017-Nov-18 13:26N 46°38' W 002°25'0 0.4
2017-Nov-18 13:00N 46°38' W 002°25'1 1.7
2017-Nov-18 12:14N 46°39' W 002°26'0 0.9
2017-Nov-18 11:57N 46°39' W 002°26'0 0.6
2017-Nov-18 11:30N 46°38' W 002°26'0 0.5
2017-Nov-18 10:59N 46°38' W 002°26'0 0.8
2017-Nov-18 10:29N 46°38' W 002°26'1 1.0
2017-Nov-18 09:53N 46°38' W 002°27'1 3.0
2017-Nov-18 09:24N 46°38' W 002°25'1 2.0
2017-Nov-18 08:47N 46°38' W 002°26'7 0.4
2017-Nov-17 16:46N 46°36' W 002°17'2 1.2
2017-Nov-17 15:22N 46°37' W 002°15'1 0.5
2017-Nov-17 14:13N 46°37' W 002°15'6 2.6
2017-Nov-17 12:04N 46°37' W 002°24'2 1.4
2017-Nov-17 10:44N 46°37' W 002°21'0 0.3
2017-Nov-17 10:29N 46°37' W 002°21'1 1.5
2017-Nov-17 09:56N 46°38' W 002°21'2 5.3
2017-Nov-17 09:30N 46°36' W 002°19'0 0.5
2017-Nov-17 09:00N 46°36' W 002°19'0 0.4
2017-Nov-17 08:29N 46°36' W 002°19'1 1.0
2017-Nov-17 07:39N 46°36' W 002°18'1 5.7
2017-Nov-17 07:30N 46°37' W 002°17'1 2.1
2017-Nov-17 07:00N 46°36' W 002°18'2 4.2
2017-Nov-17 06:30N 46°35' W 002°16'3 6.2
2017-Nov-17 06:00N 46°34' W 002°12'4 8.1
2017-Nov-17 05:30N 46°32' W 002°06'4 8.0
2017-Nov-17 05:00N 46°31' W 002°01'4 8.0
2017-Nov-17 04:30N 46°30' W 001°55'4 7.9
2017-Nov-17 04:00N 46°28' W 001°50'2 4.2
2017-Nov-17 03:30N 46°30' W 001°47'0 0.0
2017-Nov-17 03:00N 46°30' W 001°47'0 0.0
2017-Nov-17 02:30N 46°30' W 001°47'0 0.0
2017-Nov-17 02:00N 46°30' W 001°47'0 0.0
2017-Nov-17 01:30N 46°30' W 001°47'0 0.0
2017-Nov-17 01:00N 46°30' W 001°47'0 0.0
2017-Nov-17 00:30N 46°30' W 001°47'0 0.0
2017-Nov-17 00:00N 46°30' W 001°47'0 0.0
2017-Nov-16 23:30N 46°30' W 001°47'0 0.0
2017-Nov-16 23:00N 46°30' W 001°47'0 0.0
2017-Nov-16 22:30N 46°30' W 001°47'0 0.0
2017-Nov-16 22:00N 46°30' W 001°47'0 0.0
2017-Nov-16 21:30N 46°30' W 001°47'0 0.0
2017-Nov-16 21:00N 46°30' W 001°47'0 0.0
2017-Nov-16 20:30N 46°30' W 001°47'0 0.0
2017-Nov-16 20:00N 46°30' W 001°47'0 0.0
2017-Nov-16 19:30N 46°30' W 001°47'0 0.0
2017-Nov-16 19:00N 46°30' W 001°47'0 0.0
2017-Nov-16 18:30N 46°30' W 001°47'0 0.0
2017-Nov-16 18:00N 46°30' W 001°47'0 0.0
2017-Nov-16 17:30N 46°30' W 001°47'0 0.0
2017-Nov-16 17:00N 46°30' W 001°47'0 0.0
2017-Nov-16 16:30N 46°30' W 001°47'0 0.0
2017-Nov-16 16:00N 46°30' W 001°47'0 0.0
2017-Nov-16 15:30N 46°30' W 001°47'0 0.0
2017-Nov-16 15:00N 46°30' W 001°47'0 0.0
2017-Nov-16 14:30N 46°30' W 001°47'0 0.0
2017-Nov-16 14:00N 46°30' W 001°47'0 0.0
2017-Nov-16 13:30N 46°30' W 001°47'0 0.0
2017-Nov-16 13:00N 46°30' W 001°47'0 0.0
2017-Nov-16 12:30N 46°30' W 001°47'0 0.0
2017-Nov-16 12:00N 46°30' W 001°47'0 0.0
2017-Nov-16 11:30N 46°30' W 001°47'0 0.0
2017-Nov-16 11:00N 46°30' W 001°47'0 0.0
2017-Nov-16 10:30N 46°30' W 001°47'0 0.0
2017-Nov-16 10:00N 46°30' W 001°47'0 0.0
2017-Nov-16 09:30N 46°30' W 001°47'0 0.0
2017-Nov-16 09:00N 46°30' W 001°47'0 0.0
2017-Nov-16 08:30N 46°30' W 001°47'0 0.0
2017-Nov-16 08:00N 46°30' W 001°47'0 0.0
2017-Nov-16 07:30N 46°30' W 001°47'0 0.0
2017-Nov-16 07:00N 46°30' W 001°47'0 0.0
2017-Nov-16 06:30N 46°30' W 001°47'0 0.0
2017-Nov-16 06:00N 46°30' W 001°47'0 0.0
2017-Nov-16 05:30N 46°30' W 001°47'0 0.0
2017-Nov-16 05:00N 46°30' W 001°47'0 0.0
2017-Nov-16 04:30N 46°30' W 001°47'0 0.0
2017-Nov-16 04:00N 46°30' W 001°47'0 0.0
2017-Nov-16 03:30N 46°30' W 001°47'0 0.0
2017-Nov-16 03:00N 46°30' W 001°47'0 0.0
2017-Nov-16 02:30N 46°30' W 001°47'0 0.0
2017-Nov-16 02:00N 46°30' W 001°47'0 0.0
2017-Nov-16 01:30N 46°30' W 001°47'0 0.0
2017-Nov-16 01:00N 46°30' W 001°47'0 0.0
2017-Nov-16 00:30N 46°30' W 001°47'0 0.0
2017-Nov-16 00:00N 46°30' W 001°47'0 0.0
2017-Nov-15 23:30N 46°30' W 001°47'0 0.0
2017-Nov-15 23:00N 46°30' W 001°47'0 0.0
2017-Nov-15 22:30N 46°30' W 001°47'0 0.4
2017-Nov-15 22:00N 46°30' W 001°47'2 3.0
2017-Nov-15 21:30N 46°28' W 001°47'4 7.5
2017-Nov-15 21:00N 46°29' W 001°53'4 7.8
2017-Nov-15 20:30N 46°32' W 001°57'4 8.2
2017-Nov-15 20:00N 46°34' W 002°02'4 8.1
2017-Nov-15 19:30N 46°36' W 002°07'4 7.9
2017-Nov-15 19:01N 46°37' W 002°13'4 7.9
2017-Nov-15 18:30N 46°39' W 002°18'4 7.0
2017-Nov-15 17:59N 46°41' W 002°23'4 6.5
2017-Nov-15 17:27N 46°42' W 002°27'7 8.8
2017-Nov-15 16:42N 46°45' W 002°35'4 1.7
2017-Nov-15 14:22N 46°49' W 002°39'1 1.0
2017-Nov-15 13:05N 46°50' W 002°38'0 0.3
2017-Nov-15 11:30N 46°50' W 002°38'1 2.2
2017-Nov-15 10:53N 46°51' W 002°38'0 0.5
2017-Nov-15 10:30N 46°51' W 002°38'1 1.7
2017-Nov-15 09:58N 46°52' W 002°37'1 1.1
2017-Nov-15 09:30N 46°52' W 002°38'1 2.3
2017-Nov-15 08:58N 46°52' W 002°39'1 1.7
2017-Nov-15 08:29N 46°52' W 002°38'0 0.4
2017-Nov-15 07:58N 46°52' W 002°38'1 1.9
2017-Nov-15 07:30N 46°52' W 002°37'1 2.7
2017-Nov-15 07:00N 46°53' W 002°39'1 2.8
2017-Nov-15 06:30N 46°52' W 002°37'2 3.0
2017-Nov-15 05:59N 46°52' W 002°39'0 0.8
2017-Nov-15 05:30N 46°53' W 002°39'3 5.1
2017-Nov-15 04:54N 46°50' W 002°36'3 6.6
2017-Nov-15 04:30N 46°48' W 002°33'4 6.6
2017-Nov-15 03:58N 46°45' W 002°30'3 6.4
2017-Nov-15 03:29N 46°43' W 002°27'3 6.2
2017-Nov-15 03:00N 46°41' W 002°25'4 6.5
2017-Nov-15 02:20N 46°37' W 002°20'3 9.3
2017-Nov-15 01:58N 46°36' W 002°16'4 9.3
2017-Nov-15 01:30N 46°34' W 002°10'5 9.5
2017-Nov-15 01:00N 46°32' W 002°04'5 9.6
2017-Nov-15 00:30N 46°30' W 001°58'5 9.5
2017-Nov-15 00:00N 46°28' W 001°51'3 5.6
2017-Nov-14 23:30N 46°30' W 001°48'0 0.8
2017-Nov-14 23:00N 46°30' W 001°47'2 3.5
2017-Nov-14 22:30N 46°28' W 001°48'2 4.7
2017-Nov-14 22:00N 46°29' W 001°51'2 4.8
2017-Nov-14 21:30N 46°30' W 001°54'2 4.8
2017-Nov-14 21:00N 46°31' W 001°58'3 5.1
2017-Nov-14 20:30N 46°32' W 002°01'3 5.6
2017-Nov-14 20:00N 46°33' W 002°05'3 5.5
2017-Nov-14 19:29N 46°34' W 002°09'3 5.7
2017-Nov-14 19:00N 46°35' W 002°13'5 0.6
2017-Nov-14 11:07N 46°37' W 002°19'1 4.3
2017-Nov-14 10:56N 46°37' W 002°20'3 7.7
2017-Nov-14 10:30N 46°35' W 002°16'0 0.6
2017-Nov-14 10:00N 46°35' W 002°17'1 0.8
2017-Nov-14 09:19N 46°36' W 002°16'0 1.1
2017-Nov-14 09:00N 46°36' W 002°16'1 1.8
2017-Nov-14 08:30N 46°37' W 002°17'1 1.5
2017-Nov-14 07:58N 46°37' W 002°16'0 0.2
2017-Nov-14 07:30N 46°37' W 002°16'0 0.1
2017-Nov-14 06:58N 46°37' W 002°15'0 0.9
2017-Nov-14 06:28N 46°36' W 002°15'5 8.9
2017-Nov-14 05:58N 46°35' W 002°09'  
Track history (hours):
 
Tides and Currents Weather Stations Pressure Air Temp Water Temp Dewpoint Dewpoint Depression Visibility Wind Speed Wind Dir Waves Ship Positions

F/V Manbrisa

Last reported at 2017-Nov-24 05:30 UTC. Time now 2017-Nov-24 05:42 UTC.
Position N 46°28' W 002°01'.

Length 18 m.

Type: Fishing. MMSI: 228229900.

Date/timePositionNaut miles runAvg speedWind from/ knotsBaromVisibWave heightAir tempDewpointWater temp
2017-Nov-24 05:30N 46°28' W 002°01'4 7.9
2017-Nov-24 05:00N 46°28' W 001°55'4 7.8
2017-Nov-24 04:30N 46°28' W 001°49'2 3.9
2017-Nov-24 04:00N 46°30' W 001°47'0 0.0
2017-Nov-24 03:30N 46°30' W 001°47'0 0.0
2017-Nov-24 03:00N 46°30' W 001°47'0 0.0
2017-Nov-24 02:30N 46°30' W 001°47'0 0.0
2017-Nov-24 02:00N 46°30' W 001°47'0 0.0
2017-Nov-24 01:30N 46°30' W 001°47'0 0.0
2017-Nov-24 01:00N 46°30' W 001°47'0 0.0
2017-Nov-24 00:30N 46°30' W 001°47'0 0.0
2017-Nov-24 00:00N 46°30' W 001°47'0 0.0
2017-Nov-23 23:30N 46°30' W 001°47'0 0.0
2017-Nov-23 23:00N 46°30' W 001°47'0 0.0
2017-Nov-23 22:30N 46°30' W 001°47'0 0.0
2017-Nov-23 22:00N 46°30' W 001°47'0 0.0
2017-Nov-23 21:30N 46°30' W 001°47'0 0.0
2017-Nov-23 21:00N 46°30' W 001°47'0 0.0
2017-Nov-23 20:30N 46°30' W 001°47'0 0.0
2017-Nov-23 20:00N 46°30' W 001°47'0 0.0
2017-Nov-23 19:30N 46°30' W 001°47'0 0.0
2017-Nov-23 19:00N 46°30' W 001°47'0 0.0
2017-Nov-23 18:30N 46°30' W 001°47'0 0.0
2017-Nov-23 18:00N 46°30' W 001°47'0 0.0
2017-Nov-23 17:30N 46°30' W 001°47'0 0.0
2017-Nov-23 17:00N 46°30' W 001°47'0 0.0
2017-Nov-23 16:30N 46°30' W 001°47'0 0.0
2017-Nov-23 16:00N 46°30' W 001°47'0 0.0
2017-Nov-23 15:30N 46°30' W 001°47'0 0.0
2017-Nov-23 15:00N 46°30' W 001°47'1 1.7
2017-Nov-23 14:30N 46°29' W 001°47'4 8.8
2017-Nov-23 14:00N 46°28' W 001°53'5 9.8
2017-Nov-23 13:30N 46°28' W 002°01'5 9.7
2017-Nov-23 13:00N 46°29' W 002°08'3 4.9
2017-Nov-23 12:30N 46°29' W 002°11'0 0.7
2017-Nov-23 12:00N 46°29' W 002°11'0 0.9
2017-Nov-23 11:30N 46°29' W 002°10'4 8.2
2017-Nov-23 11:00N 46°33' W 002°08'2 5.0
2017-Nov-23 10:30N 46°34' W 002°10'3 5.8
2017-Nov-23 09:58N 46°35' W 002°14'3 5.6
2017-Nov-23 09:27N 46°36' W 002°18'2 1.2
2017-Nov-23 08:06N 46°36' W 002°16'1 6.8
2017-Nov-23 08:00N 46°37' W 002°16'4 3.3
2017-Nov-23 06:54N 46°34' W 002°12'3 8.8
2017-Nov-23 06:30N 46°33' W 002°08'4 8.7
2017-Nov-23 06:00N 46°31' W 002°02'4 8.6
2017-Nov-23 05:30N 46°30' W 001°56'4 8.7
2017-Nov-23 05:00N 46°28' W 001°50'2 4.6
2017-Nov-23 04:30N 46°30' W 001°47'0 0.0
2017-Nov-23 04:00N 46°30' W 001°47'0 0.0
2017-Nov-23 03:30N 46°30' W 001°47'0 0.0
2017-Nov-23 03:00N 46°30' W 001°47'0 0.0
2017-Nov-23 02:30N 46°30' W 001°47'0 0.0
2017-Nov-23 02:00N 46°30' W 001°47'0 0.0
2017-Nov-23 01:30N 46°30' W 001°47'0 0.0
2017-Nov-23 01:00N 46°30' W 001°47'0 0.0
2017-Nov-23 00:30N 46°30' W 001°47'0 0.0
2017-Nov-23 00:00N 46°30' W 001°47'0 0.0
2017-Nov-22 23:30N 46°30' W 001°47'0 0.0
2017-Nov-22 23:00N 46°30' W 001°47'0 0.0
2017-Nov-22 22:30N 46°30' W 001°47'0 0.0
2017-Nov-22 22:00N 46°30' W 001°47'0 0.0
2017-Nov-22 21:30N 46°30' W 001°47'0 0.0
2017-Nov-22 21:00N 46°30' W 001°47'0 0.0
2017-Nov-22 20:30N 46°30' W 001°47'0 0.1
2017-Nov-22 20:00N 46°30' W 001°47'1 2.8
2017-Nov-22 19:30N 46°29' W 001°47'  
2017-Nov-20 00:30N 46°30' W 001°47'0 0.0
2017-Nov-20 00:00N 46°30' W 001°47'0 0.0
2017-Nov-19 23:30N 46°30' W 001°47'0 0.0
2017-Nov-19 23:00N 46°30' W 001°47'0 0.0
2017-Nov-19 22:30N 46°30' W 001°47'0 0.0
2017-Nov-19 22:00N 46°30' W 001°47'0 0.0
2017-Nov-19 21:30N 46°30' W 001°47'0 0.0
2017-Nov-19 21:00N 46°30' W 001°47'0 0.0
2017-Nov-19 20:30N 46°30' W 001°47'0 0.0
2017-Nov-19 20:00N 46°30' W 001°47'0 0.0
2017-Nov-19 19:30N 46°30' W 001°47'1 2.9
2017-Nov-19 19:00N 46°28' W 001°48'4 9.0
2017-Nov-19 18:30N 46°29' W 001°54'5 9.3
2017-Nov-19 18:00N 46°31' W 002°00'5 9.4
2017-Nov-19 17:30N 46°33' W 002°07'5 9.5
2017-Nov-19 17:00N 46°34' W 002°13'5 0.8
2017-Nov-19 09:51N 46°36' W 002°20'1 2.3
2017-Nov-19 09:25N 46°36' W 002°19'1 0.7
2017-Nov-19 07:24N 46°37' W 002°17'5 6.0
2017-Nov-19 06:31N 46°34' W 002°10'0 9.7
2017-Nov-19 06:29N 46°34' W 002°10'5 9.7
2017-Nov-19 05:59N 46°32' W 002°03'5 9.7
2017-Nov-19 05:30N 46°31' W 001°57'5 9.7
2017-Nov-19 05:00N 46°29' W 001°51'2 5.0
2017-Nov-19 04:30N 46°30' W 001°47'0 0.2
2017-Nov-19 04:00N 46°30' W 001°47'0 0.0
2017-Nov-19 03:30N 46°30' W 001°47'0 0.0
2017-Nov-19 03:00N 46°30' W 001°47'0 0.0
2017-Nov-19 02:30N 46°30' W 001°47'0 0.0
2017-Nov-19 02:00N 46°30' W 001°47'0 0.0
2017-Nov-19 01:30N 46°30' W 001°47'0 0.0
2017-Nov-19 01:00N 46°30' W 001°47'0 0.0
2017-Nov-19 00:30N 46°30' W 001°47'0 0.0
2017-Nov-19 00:00N 46°30' W 001°47'0 0.0
2017-Nov-18 23:30N 46°30' W 001°47'0 0.0
2017-Nov-18 23:00N 46°30' W 001°47'0 0.0
2017-Nov-18 22:30N 46°30' W 001°47'0 0.0
2017-Nov-18 22:00N 46°30' W 001°47'0 0.0
2017-Nov-18 21:30N 46°30' W 001°47'0 0.0
2017-Nov-18 21:00N 46°30' W 001°47'0 0.0
2017-Nov-18 20:30N 46°30' W 001°47'0 0.0
2017-Nov-18 20:00N 46°30' W 001°47'0 0.1
2017-Nov-18 19:30N 46°30' W 001°47'2 3.1
2017-Nov-18 19:00N 46°28' W 001°48'5 9.4
2017-Nov-18 18:30N 46°29' W 001°54'5 9.6
2017-Nov-18 18:00N 46°31' W 002°01'5 9.7
2017-Nov-18 17:30N 46°32' W 002°08'5 9.8
2017-Nov-18 16:58N 46°33' W 002°15'5 9.9
2017-Nov-18 16:30N 46°34' W 002°22'1 1.8
2017-Nov-18 16:00N 46°34' W 002°23'1 2.5
2017-Nov-18 15:30N 46°33' W 002°25'2 3.3
2017-Nov-18 14:51N 46°36' W 002°24'0 0.8
2017-Nov-18 14:30N 46°35' W 002°24'1 1.3
2017-Nov-18 13:59N 46°35' W 002°25'3 4.7
2017-Nov-18 13:26N 46°38' W 002°25'0 0.4
2017-Nov-18 13:00N 46°38' W 002°25'1 1.7
2017-Nov-18 12:14N 46°39' W 002°26'0 0.9
2017-Nov-18 11:57N 46°39' W 002°26'0 0.6
2017-Nov-18 11:30N 46°38' W 002°26'0 0.5
2017-Nov-18 10:59N 46°38' W 002°26'0 0.8
2017-Nov-18 10:29N 46°38' W 002°26'1 1.0
2017-Nov-18 09:53N 46°38' W 002°27'1 3.0
2017-Nov-18 09:24N 46°38' W 002°25'1 2.0
2017-Nov-18 08:47N 46°38' W 002°26'7 0.4
2017-Nov-17 16:46N 46°36' W 002°17'2 1.2
2017-Nov-17 15:22N 46°37' W 002°15'1 0.5
2017-Nov-17 14:13N 46°37' W 002°15'6 2.6
2017-Nov-17 12:04N 46°37' W 002°24'2 1.4
2017-Nov-17 10:44N 46°37' W 002°21'0 0.3
2017-Nov-17 10:29N 46°37' W 002°21'1 1.5
2017-Nov-17 09:56N 46°38' W 002°21'2 5.3
2017-Nov-17 09:30N 46°36' W 002°19'0 0.5
2017-Nov-17 09:00N 46°36' W 002°19'0 0.4
2017-Nov-17 08:29N 46°36' W 002°19'1 1.0
2017-Nov-17 07:39N 46°36' W 002°18'1 5.7
2017-Nov-17 07:30N 46°37' W 002°17'1 2.1
2017-Nov-17 07:00N 46°36' W 002°18'2 4.2
2017-Nov-17 06:30N 46°35' W 002°16'3 6.2
2017-Nov-17 06:00N 46°34' W 002°12'4 8.1
2017-Nov-17 05:30N 46°32' W 002°06'4 8.0
2017-Nov-17 05:00N 46°31' W 002°01'4 8.0
2017-Nov-17 04:30N 46°30' W 001°55'4 7.9
2017-Nov-17 04:00N 46°28' W 001°50'2 4.2
2017-Nov-17 03:30N 46°30' W 001°47'0 0.0
2017-Nov-17 03:00N 46°30' W 001°47'0 0.0
2017-Nov-17 02:30N 46°30' W 001°47'0 0.0
2017-Nov-17 02:00N 46°30' W 001°47'0 0.0
2017-Nov-17 01:30N 46°30' W 001°47'0 0.0
2017-Nov-17 01:00N 46°30' W 001°47'0 0.0
2017-Nov-17 00:30N 46°30' W 001°47'0 0.0
2017-Nov-17 00:00N 46°30' W 001°47'0 0.0
2017-Nov-16 23:30N 46°30' W 001°47'0 0.0
2017-Nov-16 23:00N 46°30' W 001°47'0 0.0
2017-Nov-16 22:30N 46°30' W 001°47'0 0.0
2017-Nov-16 22:00N 46°30' W 001°47'0 0.0
2017-Nov-16 21:30N 46°30' W 001°47'0 0.0
2017-Nov-16 21:00N 46°30' W 001°47'0 0.0
2017-Nov-16 20:30N 46°30' W 001°47'0 0.0
2017-Nov-16 20:00N 46°30' W 001°47'0 0.0
2017-Nov-16 19:30N 46°30' W 001°47'0 0.0
2017-Nov-16 19:00N 46°30' W 001°47'0 0.0
2017-Nov-16 18:30N 46°30' W 001°47'0 0.0
2017-Nov-16 18:00N 46°30' W 001°47'0 0.0
2017-Nov-16 17:30N 46°30' W 001°47'0 0.0
2017-Nov-16 17:00N 46°30' W 001°47'0 0.0
2017-Nov-16 16:30N 46°30' W 001°47'0 0.0
2017-Nov-16 16:00N 46°30' W 001°47'0 0.0
2017-Nov-16 15:30N 46°30' W 001°47'0 0.0
2017-Nov-16 15:00N 46°30' W 001°47'0 0.0
2017-Nov-16 14:30N 46°30' W 001°47'0 0.0
2017-Nov-16 14:00N 46°30' W 001°47'0 0.0
2017-Nov-16 13:30N 46°30' W 001°47'0 0.0
2017-Nov-16 13:00N 46°30' W 001°47'0 0.0
2017-Nov-16 12:30N 46°30' W 001°47'0 0.0
2017-Nov-16 12:00N 46°30' W 001°47'0 0.0
2017-Nov-16 11:30N 46°30' W 001°47'0 0.0
2017-Nov-16 11:00N 46°30' W 001°47'0 0.0
2017-Nov-16 10:30N 46°30' W 001°47'0 0.0
2017-Nov-16 10:00N 46°30' W 001°47'0 0.0
2017-Nov-16 09:30N 46°30' W 001°47'0 0.0
2017-Nov-16 09:00N 46°30' W 001°47'0 0.0
2017-Nov-16 08:30N 46°30' W 001°47'0 0.0
2017-Nov-16 08:00N 46°30' W 001°47'0 0.0
2017-Nov-16 07:30N 46°30' W 001°47'0 0.0
2017-Nov-16 07:00N 46°30' W 001°47'0 0.0
2017-Nov-16 06:30N 46°30' W 001°47'0 0.0
2017-Nov-16 06:00N 46°30' W 001°47'0 0.0
2017-Nov-16 05:30N 46°30' W 001°47'0 0.0
2017-Nov-16 05:00N 46°30' W 001°47'0 0.0
2017-Nov-16 04:30N 46°30' W 001°47'0 0.0
2017-Nov-16 04:00N 46°30' W 001°47'0 0.0
2017-Nov-16 03:30N 46°30' W 001°47'0 0.0
2017-Nov-16 03:00N 46°30' W 001°47'0 0.0
2017-Nov-16 02:30N 46°30' W 001°47'0 0.0
2017-Nov-16 02:00N 46°30' W 001°47'0 0.0
2017-Nov-16 01:30N 46°30' W 001°47'0 0.0
2017-Nov-16 01:00N 46°30' W 001°47'0 0.0
2017-Nov-16 00:30N 46°30' W 001°47'0 0.0
2017-Nov-16 00:00N 46°30' W 001°47'0 0.0
2017-Nov-15 23:30N 46°30' W 001°47'0 0.0
2017-Nov-15 23:00N 46°30' W 001°47'0 0.0
2017-Nov-15 22:30N 46°30' W 001°47'0 0.4
2017-Nov-15 22:00N 46°30' W 001°47'2 3.0
2017-Nov-15 21:30N 46°28' W 001°47'4 7.5
2017-Nov-15 21:00N 46°29' W 001°53'4 7.8
2017-Nov-15 20:30N 46°32' W 001°57'4 8.2
2017-Nov-15 20:00N 46°34' W 002°02'4 8.1
2017-Nov-15 19:30N 46°36' W 002°07'4 7.9
2017-Nov-15 19:01N 46°37' W 002°13'4 7.9
2017-Nov-15 18:30N 46°39' W 002°18'4 7.0
2017-Nov-15 17:59N 46°41' W 002°23'4 6.5
2017-Nov-15 17:27N 46°42' W 002°27'7 8.8
2017-Nov-15 16:42N 46°45' W 002°35'4 1.7
2017-Nov-15 14:22N 46°49' W 002°39'1 1.0
2017-Nov-15 13:05N 46°50' W 002°38'0 0.3
2017-Nov-15 11:30N 46°50' W 002°38'1 2.2
2017-Nov-15 10:53N 46°51' W 002°38'0 0.5
2017-Nov-15 10:30N 46°51' W 002°38'1 1.7
2017-Nov-15 09:58N 46°52' W 002°37'1 1.1
2017-Nov-15 09:30N 46°52' W 002°38'1 2.3
2017-Nov-15 08:58N 46°52' W 002°39'1 1.7
2017-Nov-15 08:29N 46°52' W 002°38'0 0.4
2017-Nov-15 07:58N 46°52' W 002°38'1 1.9
2017-Nov-15 07:30N 46°52' W 002°37'1 2.7
2017-Nov-15 07:00N 46°53' W 002°39'1 2.8
2017-Nov-15 06:30N 46°52' W 002°37'2 3.0
2017-Nov-15 05:59N 46°52' W 002°39'0 0.8
2017-Nov-15 05:30N 46°53' W 002°39'3 5.1
2017-Nov-15 04:54N 46°50' W 002°36'3 6.6
2017-Nov-15 04:30N 46°48' W 002°33'4 6.6
2017-Nov-15 03:58N 46°45' W 002°30'3 6.4
2017-Nov-15 03:29N 46°43' W 002°27'3 6.2
2017-Nov-15 03:00N 46°41' W 002°25'4 6.5
2017-Nov-15 02:20N 46°37' W 002°20'3 9.3
2017-Nov-15 01:58N 46°36' W 002°16'4 9.3
2017-Nov-15 01:30N 46°34' W 002°10'5 9.5
2017-Nov-15 01:00N 46°32' W 002°04'5 9.6
2017-Nov-15 00:30N 46°30' W 001°58'5 9.5
2017-Nov-15 00:00N 46°28' W 001°51'3 5.6
2017-Nov-14 23:30N 46°30' W 001°48'0 0.8
2017-Nov-14 23:00N 46°30' W 001°47'2 3.5
2017-Nov-14 22:30N 46°28' W 001°48'2 4.7
2017-Nov-14 22:00N 46°29' W 001°51'2 4.8
2017-Nov-14 21:30N 46°30' W 001°54'2 4.8
2017-Nov-14 21:00N 46°31' W 001°58'3 5.1
2017-Nov-14 20:30N 46°32' W 002°01'3 5.6
2017-Nov-14 20:00N 46°33' W 002°05'3 5.5
2017-Nov-14 19:29N 46°34' W 002°09'3 5.7
2017-Nov-14 19:00N 46°35' W 002°13'5 0.6
2017-Nov-14 11:07N 46°37' W 002°19'1 4.3
2017-Nov-14 10:56N 46°37' W 002°20'3 7.7
2017-Nov-14 10:30N 46°35' W 002°16'0 0.6
2017-Nov-14 10:00N 46°35' W 002°17'1 0.8
2017-Nov-14 09:19N 46°36' W 002°16'0 1.1
2017-Nov-14 09:00N 46°36' W 002°16'1 1.8
2017-Nov-14 08:30N 46°37' W 002°17'1 1.5
2017-Nov-14 07:58N 46°37' W 002°16'0 0.2
2017-Nov-14 07:30N 46°37' W 002°16'0 0.1
2017-Nov-14 06:58N 46°37' W 002°15'0 0.9
2017-Nov-14 06:28N 46°36' W 002°15'5 8.9
2017-Nov-14 05:58N 46°35' W 002°09'  

Dump ship's entire track history